Time,TemperatureF,DewpointF,PressureIn,WindDirection,WindDirectionDegrees,WindSpeedMPH,WindSpeedGustMPH,Humidity,HourlyPrecipIn,Conditions,Clouds,dailyrainin,SoftwareType,DateUTC
2013-05-08 00:00:00,55.1,52.5,29.94,NNE,31,0.0,0.0,91,0.00,,OVC090,0.00,VWS V14.01,2013-05-08 04:00:00,
2013-05-08 00:01:00,55.1,52.5,29.94,NNE,31,0.0,0.0,91,0.00,,CLR,0.00,VWS V14.01,2013-05-08 04:01:00,
2013-05-08 00:06:00,55.3,53.0,29.94,NNE,31,0.0,1.0,92,0.00,,CLR,0.00,VWS V14.01,2013-05-08 04:06:00,
2013-05-08 00:12:00,55.3,52.7,29.94,NNE,31,0.0,1.0,91,0.00,,CLR,0.00,VWS V14.01,2013-05-08 04:12:00,
2013-05-08 00:15:00,55.3,52.7,29.94,NNE,31,0.0,0.0,91,0.00,,OVC090,0.00,VWS V14.01,2013-05-08 04:15:00,
2013-05-08 00:17:00,55.1,52.5,29.94,NNE,31,0.0,0.0,91,0.00,,CLR,0.00,VWS V14.01,2013-05-08 04:17:00,
2013-05-08 00:22:00,55.0,52.4,29.94,NNE,24,0.0,0.0,91,0.00,,CLR,0.00,VWS V14.01,2013-05-08 04:22:00,
2013-05-08 00:27:00,54.8,52.2,29.94,NNE,24,0.0,0.0,91,0.00,,CLR,0.00,VWS V14.01,2013-05-08 04:27:00,
2013-05-08 00:30:00,54.7,52.1,29.94,NNE,24,0.0,0.0,91,0.00,,OVC090,0.00,VWS V14.01,2013-05-08 04:30:00,
2013-05-08 00:32:00,54.7,52.4,29.94,NNE,24,0.0,0.0,92,0.00,,CLR,0.00,VWS V14.01,2013-05-08 04:32:00,
2013-05-08 00:37:00,54.7,52.4,29.94,NNE,24,0.0,0.0,92,0.00,,CLR,0.00,VWS V14.01,2013-05-08 04:37:00,
2013-05-08 00:42:00,54.7,52.4,29.94,NNE,24,0.0,0.0,92,0.00,,CLR,0.00,VWS V14.01,2013-05-08 04:42:00,
2013-05-08 00:45:00,54.7,52.4,29.93,NNE,24,0.0,0.0,92,0.00,,OVC090,0.00,VWS V14.01,2013-05-08 04:45:00,
2013-05-08 00:47:00,54.8,52.5,29.93,NNE,24,0.0,0.0,92,0.00,,CLR,0.00,VWS V14.01,2013-05-08 04:47:00,
2013-05-08 00:52:00,54.8,52.5,29.93,NNE,24,0.0,0.0,92,0.00,,CLR,0.00,VWS V14.01,2013-05-08 04:52:00,
2013-05-08 00:57:00,54.8,52.5,29.93,NNE,24,0.0,0.0,92,0.00,,CLR,0.00,VWS V14.01,2013-05-08 04:57:00,
2013-05-08 01:00:00,54.8,52.5,29.93,NNE,24,0.0,0.0,92,0.00,,OVC090,0.00,VWS V14.01,2013-05-08 05:00:00,
2013-05-08 01:02:00,54.8,52.5,29.93,NNE,24,0.0,0.0,92,0.00,,,0.00,VWS V14.01,2013-05-08 05:02:00,
2013-05-08 01:07:00,54.8,52.5,29.93,NNE,24,0.0,0.0,92,0.00,,,0.00,VWS V14.01,2013-05-08 05:07:00,
2013-05-08 01:12:00,54.7,52.4,29.93,NNE,24,0.0,1.0,92,0.00,,,0.00,VWS V14.01,2013-05-08 05:12:00,
2013-05-08 01:15:00,54.7,52.4,29.93,NNE,24,0.0,1.0,92,0.00,,OVC090,0.00,VWS V14.01,2013-05-08 05:15:00,
2013-05-08 01:17:00,54.5,52.2,29.93,NNE,24,0.0,1.0,92,0.00,,,0.00,VWS V14.01,2013-05-08 05:17:00,
2013-05-08 01:22:00,54.5,52.2,29.93,NNE,24,0.0,0.0,92,0.00,,,0.00,VWS V14.01,2013-05-08 05:22:00,
2013-05-08 01:27:00,54.4,52.1,29.93,NNE,24,0.0,0.0,92,0.00,,,0.00,VWS V14.01,2013-05-08 05:27:00,
2013-05-08 01:30:00,54.4,52.1,29.93,NNE,24,0.0,0.0,92,0.00,,OVC090,0.00,VWS V14.01,2013-05-08 05:30:00,
2013-05-08 01:32:00,54.4,52.1,29.93,NNE,24,0.0,0.0,92,0.00,,,0.00,VWS V14.01,2013-05-08 05:32:00,
2013-05-08 01:37:00,54.4,52.1,29.93,NNE,24,0.0,0.0,92,0.00,,,0.00,VWS V14.01,2013-05-08 05:37:00,
2013-05-08 01:42:00,54.4,52.1,29.93,NNE,24,0.0,0.0,92,0.00,,,0.00,VWS V14.01,2013-05-08 05:42:00,
2013-05-08 01:45:00,54.4,52.1,29.93,NNE,24,0.0,0.0,92,0.00,,OVC090,0.00,VWS V14.01,2013-05-08 05:45:00,
2013-05-08 01:47:00,54.4,52.4,29.93,NNE,24,0.0,0.0,93,0.00,,,0.00,VWS V14.01,2013-05-08 05:47:00,
2013-05-08 01:52:00,54.7,52.7,29.93,NNE,24,0.0,0.0,93,0.00,,,0.00,VWS V14.01,2013-05-08 05:52:00,
2013-05-08 01:57:00,54.8,52.8,29.93,NNE,23,0.0,0.0,93,0.00,,,0.00,VWS V14.01,2013-05-08 05:57:00,
2013-05-08 02:00:00,54.8,52.8,29.92,NNE,23,0.0,0.0,93,0.00,,OVC090,0.00,VWS V14.01,2013-05-08 06:00:00,
2013-05-08 02:02:00,54.8,52.5,29.92,NNE,23,0.0,0.0,92,0.00,,CLR,0.00,VWS V14.01,2013-05-08 06:02:00,
2013-05-08 02:07:00,54.8,52.5,29.92,NNE,23,0.0,0.0,92,0.00,,CLR,0.00,VWS V14.01,2013-05-08 06:07:00,
2013-05-08 02:12:00,54.8,52.5,29.92,NNE,23,0.0,0.0,92,0.00,,CLR,0.00,VWS V14.01,2013-05-08 06:12:00,
2013-05-08 02:15:00,54.8,52.5,29.92,NNE,23,1.0,2.0,92,0.00,,OVC090,0.00,VWS V14.01,2013-05-08 06:15:00,
2013-05-08 02:17:00,54.8,52.5,29.92,NNE,23,0.0,2.0,92,0.00,,CLR,0.00,VWS V14.01,2013-05-08 06:17:00,
2013-05-08 02:22:00,54.8,52.5,29.92,NNE,18,0.0,2.0,92,0.00,,CLR,0.00,VWS V14.01,2013-05-08 06:22:00,
2013-05-08 02:27:00,54.8,52.5,29.92,NNE,18,0.0,1.0,92,0.00,,CLR,0.00,VWS V14.01,2013-05-08 06:27:00,
2013-05-08 02:30:00,54.8,52.5,29.91,NNE,18,0.0,1.0,92,0.00,,OVC090,0.00,VWS V14.01,2013-05-08 06:30:00,
2013-05-08 02:32:00,54.8,52.5,29.91,NNE,18,0.0,0.0,92,0.00,,CLR,0.00,VWS V14.01,2013-05-08 06:32:00,
2013-05-08 02:38:00,54.8,52.5,29.91,NNE,18,0.0,0.0,92,0.00,,CLR,0.00,VWS V14.01,2013-05-08 06:38:00,
2013-05-08 02:43:00,54.8,52.5,29.91,NNE,18,0.0,0.0,92,0.00,,CLR,0.00,VWS V14.01,2013-05-08 06:43:00,
2013-05-08 02:45:00,55.0,52.7,29.90,NNE,18,0.0,0.0,92,0.00,,OVC090,0.00,VWS V14.01,2013-05-08 06:45:00,
2013-05-08 02:48:00,55.0,52.7,29.90,North,6,0.0,2.0,92,0.00,,CLR,0.00,VWS V14.01,2013-05-08 06:48:00,
2013-05-08 02:53:00,55.1,52.8,29.90,North,6,0.0,2.0,92,0.00,,CLR,0.00,VWS V14.01,2013-05-08 06:53:00,
2013-05-08 02:58:00,55.1,52.5,29.90,North,6,0.0,0.0,91,0.00,,CLR,0.00,VWS V14.01,2013-05-08 06:58:00,
2013-05-08 03:00:00,55.0,52.4,29.90,North,6,0.0,0.0,91,0.00,,OVC090,0.00,VWS V14.01,2013-05-08 07:00:00,
2013-05-08 03:03:00,55.0,52.4,29.90,North,6,0.0,0.0,91,0.00,,CLR,0.00,VWS V14.01,2013-05-08 07:03:00,
2013-05-08 03:08:00,54.8,52.2,29.90,North,6,0.0,0.0,91,0.00,,CLR,0.00,VWS V14.01,2013-05-08 07:08:00,
2013-05-08 03:13:00,54.8,52.2,29.90,North,6,0.0,0.0,91,0.00,,CLR,0.00,VWS V14.01,2013-05-08 07:13:00,
2013-05-08 03:15:00,54.8,52.2,29.90,North,6,0.0,0.0,91,0.00,,OVC090,0.00,VWS V14.01,2013-05-08 07:15:00,
2013-05-08 03:18:00,54.8,52.2,29.90,North,6,0.0,0.0,91,0.00,,CLR,0.00,VWS V14.01,2013-05-08 07:18:00,
2013-05-08 03:23:00,54.8,52.2,29.90,North,6,0.0,0.0,91,0.00,,CLR,0.00,VWS V14.01,2013-05-08 07:23:00,
2013-05-08 03:28:00,54.8,52.2,29.90,North,6,0.0,0.0,91,0.00,,CLR,0.00,VWS V14.01,2013-05-08 07:28:00,
2013-05-08 03:30:00,54.8,52.2,29.90,North,6,0.0,0.0,91,0.00,,OVC090,0.00,VWS V14.01,2013-05-08 07:30:00,
2013-05-08 03:33:00,54.7,52.1,29.90,North,6,0.0,0.0,91,0.00,,CLR,0.00,VWS V14.01,2013-05-08 07:33:00,
2013-05-08 03:38:00,54.7,52.1,29.90,North,6,0.0,0.0,91,0.00,,CLR,0.00,VWS V14.01,2013-05-08 07:38:00,
2013-05-08 03:43:00,54.7,52.1,29.90,North,6,0.0,0.0,91,0.00,,CLR,0.00,VWS V14.01,2013-05-08 07:43:00,
2013-05-08 03:45:00,54.7,52.1,29.90,North,7,0.0,1.0,91,0.00,,OVC090,0.00,VWS V14.01,2013-05-08 07:45:00,
2013-05-08 03:48:00,54.7,52.1,29.90,North,11,0.0,1.0,91,0.00,,CLR,0.00,VWS V14.01,2013-05-08 07:48:00,
2013-05-08 03:53:00,54.8,52.2,29.90,North,11,0.0,1.0,91,0.00,,CLR,0.00,VWS V14.01,2013-05-08 07:53:00,
2013-05-08 03:58:00,54.8,52.2,29.90,North,11,0.0,0.0,91,0.00,,CLR,0.00,VWS V14.01,2013-05-08 07:58:00,
2013-05-08 04:00:00,54.8,52.2,29.90,North,11,0.0,0.0,91,0.00,,OVC090,0.00,VWS V14.01,2013-05-08 08:00:00,
2013-05-08 04:03:00,54.8,52.2,29.90,North,11,0.0,0.0,91,0.00,,SCT110,0.00,VWS V14.01,2013-05-08 08:03:00,
2013-05-08 04:08:00,54.8,52.2,29.90,North,11,0.0,2.0,91,0.00,,SCT110,0.00,VWS V14.01,2013-05-08 08:08:00,
2013-05-08 04:13:00,55.0,52.4,29.90,North,11,0.0,2.0,91,0.00,,SCT110,0.00,VWS V14.01,2013-05-08 08:13:00,
2013-05-08 04:15:00,55.0,52.4,29.90,North,11,0.0,2.0,91,0.00,,OVC090,0.00,VWS V14.01,2013-05-08 08:15:00,
2013-05-08 04:18:00,55.0,52.4,29.90,North,11,0.0,0.0,91,0.00,,SCT110,0.00,VWS V14.01,2013-05-08 08:18:00,
2013-05-08 04:23:00,55.1,52.5,29.90,North,11,0.0,0.0,91,0.00,,SCT110,0.00,VWS V14.01,2013-05-08 08:23:00,
2013-05-08 04:28:00,55.0,52.4,29.90,North,11,0.0,0.0,91,0.00,,SCT110,0.00,VWS V14.01,2013-05-08 08:28:00,
2013-05-08 04:30:00,55.0,52.1,29.91,North,11,0.0,0.0,90,0.00,,OVC090,0.00,VWS V14.01,2013-05-08 08:30:00,
2013-05-08 04:33:00,55.0,52.4,29.91,North,11,0.0,0.0,91,0.00,,SCT110,0.00,VWS V14.01,2013-05-08 08:33:00,
2013-05-08 04:38:00,55.0,52.4,29.91,North,11,0.0,0.0,91,0.00,,SCT110,0.00,VWS V14.01,2013-05-08 08:38:00,
2013-05-08 04:43:00,55.1,52.2,29.91,North,11,0.0,0.0,90,0.00,,SCT110,0.00,VWS V14.01,2013-05-08 08:43:00,
2013-05-08 04:45:00,55.0,52.1,29.91,North,11,0.0,0.0,90,0.00,,OVC090,0.00,VWS V14.01,2013-05-08 08:45:00,
2013-05-08 04:49:00,55.0,52.1,29.91,North,11,0.0,0.0,90,0.00,,SCT110,0.00,VWS V14.01,2013-05-08 08:49:00,
2013-05-08 04:54:00,54.8,51.9,29.91,North,11,0.0,0.0,90,0.00,,SCT110,0.00,VWS V14.01,2013-05-08 08:54:00,
2013-05-08 04:59:00,55.0,52.1,29.91,North,11,0.0,0.0,90,0.00,,SCT110,0.00,VWS V14.01,2013-05-08 08:59:00,
2013-05-08 05:00:00,55.0,52.4,29.90,North,11,0.0,0.0,91,0.00,,OVC090,0.00,VWS V14.01,2013-05-08 09:00:00,
2013-05-08 05:04:00,55.1,52.5,29.90,North,11,0.0,1.0,91,0.00,,SCT110,0.00,VWS V14.01,2013-05-08 09:04:00,
2013-05-08 05:09:00,55.3,52.7,29.90,North,11,0.0,1.0,91,0.00,,SCT110,0.00,VWS V14.01,2013-05-08 09:09:00,
2013-05-08 05:14:00,55.3,52.7,29.90,North,11,0.0,0.0,91,0.00,,SCT110,0.00,VWS V14.01,2013-05-08 09:14:00,
2013-05-08 05:15:00,55.3,52.4,29.90,North,11,0.0,0.0,90,0.00,,OVC090,0.00,VWS V14.01,2013-05-08 09:15:00,
2013-05-08 05:19:00,55.3,52.7,29.90,North,11,0.0,0.0,91,0.00,,OVC090,0.00,VWS V14.01,2013-05-08 09:19:00,
2013-05-08 05:24:00,55.4,52.8,29.90,North,11,0.0,0.0,91,0.00,,OVC090,0.00,VWS V14.01,2013-05-08 09:24:00,
2013-05-08 05:29:00,55.6,53.0,29.90,North,11,0.0,0.0,91,0.00,,OVC090,0.00,VWS V14.01,2013-05-08 09:29:00,
2013-05-08 05:30:00,55.7,53.1,29.90,North,11,0.0,0.0,91,0.00,,OVC090,0.00,VWS V14.01,2013-05-08 09:30:00,
2013-05-08 05:34:00,55.9,53.3,29.90,North,11,0.0,0.0,91,0.00,,OVC090,0.00,VWS V14.01,2013-05-08 09:34:00,
2013-05-08 05:39:00,56.0,53.4,29.90,North,7,0.0,0.0,91,0.00,,OVC090,0.00,VWS V14.01,2013-05-08 09:39:00,
2013-05-08 05:44:00,56.2,53.3,29.90,North,7,0.0,0.0,90,0.00,,OVC090,0.00,VWS V14.01,2013-05-08 09:44:00,
2013-05-08 05:45:00,56.2,53.3,29.90,North,354,0.0,4.0,90,0.00,,OVC090,0.00,VWS V14.01,2013-05-08 09:45:00,
2013-05-08 05:49:00,56.3,53.4,29.90,North,354,0.0,4.0,90,0.00,,OVC090,0.00,VWS V14.01,2013-05-08 09:49:00,
2013-05-08 05:54:00,56.5,53.3,29.90,NNW,339,0.0,5.0,89,0.00,,OVC090,0.00,VWS V14.01,2013-05-08 09:54:00,
2013-05-08 05:59:00,56.6,53.4,29.90,NNW,344,1.0,7.0,89,0.00,,OVC090,0.00,VWS V14.01,2013-05-08 09:59:00,
2013-05-08 06:00:00,56.6,53.4,29.90,NNW,344,0.0,7.0,89,0.00,,OVC090,0.00,VWS V14.01,2013-05-08 10:00:00,
2013-05-08 06:04:00,56.6,53.1,29.90,North,0,0.0,7.0,88,0.00,,OVC048,0.00,VWS V14.01,2013-05-08 10:04:00,
2013-05-08 06:09:00,56.6,53.1,29.90,North,4,0.0,2.0,88,0.00,,OVC048,0.00,VWS V14.01,2013-05-08 10:09:00,
2013-05-08 06:14:00,56.6,52.8,29.90,North,359,0.0,4.0,87,0.00,,OVC048,0.00,VWS V14.01,2013-05-08 10:14:00,
2013-05-08 06:15:00,56.6,52.8,29.90,North,359,0.0,4.0,87,0.00,,OVC090,0.00,VWS V14.01,2013-05-08 10:15:00,
2013-05-08 06:19:00,56.7,52.9,29.90,NNE,20,0.0,4.0,87,0.00,,OVC048,0.00,VWS V14.01,2013-05-08 10:19:00,
2013-05-08 06:24:00,56.7,52.9,29.90,North,357,0.0,5.0,87,0.00,,OVC048,0.00,VWS V14.01,2013-05-08 10:24:00,
2013-05-08 06:29:00,56.7,52.9,29.91,North,354,0.0,3.0,87,0.00,,OVC048,0.00,VWS V14.01,2013-05-08 10:29:00,
2013-05-08 06:30:00,56.7,52.9,29.91,North,354,0.0,3.0,87,0.00,,OVC090,0.00,VWS V14.01,2013-05-08 10:30:00,
2013-05-08 06:34:00,56.7,52.9,29.91,North,357,0.0,2.0,87,0.00,,OVC048,0.00,VWS V14.01,2013-05-08 10:34:00,
2013-05-08 06:40:00,56.7,52.9,29.91,NNE,32,0.0,1.0,87,0.00,,OVC048,0.00,VWS V14.01,2013-05-08 10:40:00,
2013-05-08 06:45:00,56.7,52.9,29.91,North,349,0.0,3.0,87,0.00,,OVC048,0.00,VWS V14.01,2013-05-08 10:45:00,
2013-05-08 06:50:00,56.9,53.1,29.91,North,0,0.0,3.0,87,0.00,,OVC048,0.00,VWS V14.01,2013-05-08 10:50:00,
2013-05-08 06:55:00,56.9,53.1,29.91,NNE,20,0.0,2.0,87,0.00,,OVC048,0.00,VWS V14.01,2013-05-08 10:55:00,
2013-05-08 07:00:00,57.0,53.2,29.91,NNE,27,0.0,3.0,87,0.00,,OVC048,0.00,VWS V14.01,2013-05-08 11:00:00,
2013-05-08 07:05:00,57.2,53.4,29.91,North,4,0.0,3.0,87,0.00,,OVC048,0.00,VWS V14.01,2013-05-08 11:05:00,
2013-05-08 07:10:00,57.3,53.2,29.91,North,349,1.0,6.0,86,0.00,,OVC048,0.00,VWS V14.01,2013-05-08 11:10:00,
2013-05-08 07:15:00,57.5,53.3,29.91,North,359,0.0,7.0,86,0.00,,OVC048,0.00,VWS V14.01,2013-05-08 11:15:00,
2013-05-08 07:20:00,57.6,53.1,29.91,North,353,3.0,10.0,85,0.00,,OVC048,0.00,VWS V14.01,2013-05-08 11:20:00,
2013-05-08 07:25:00,57.8,53.3,29.91,North,1,0.0,6.0,85,0.00,,OVC048,0.00,VWS V14.01,2013-05-08 11:25:00,
2013-05-08 07:30:00,58.1,53.6,29.92,NNE,23,0.0,3.0,85,0.00,,OVC048,0.00,VWS V14.01,2013-05-08 11:30:00,
2013-05-08 07:35:00,58.3,53.5,29.92,North,357,0.0,6.0,84,0.00,,OVC048,0.00,VWS V14.01,2013-05-08 11:35:00,
2013-05-08 07:40:00,58.4,53.6,29.92,North,359,0.0,1.0,84,0.00,,OVC048,0.00,VWS V14.01,2013-05-08 11:40:00,
2013-05-08 07:45:00,58.4,53.6,29.92,NNE,18,0.0,5.0,84,0.00,,OVC048,0.00,VWS V14.01,2013-05-08 11:45:00,
2013-05-08 07:50:00,58.6,54.1,29.92,North,11,0.0,3.0,85,0.00,,OVC048,0.00,VWS V14.01,2013-05-08 11:50:00,
2013-05-08 07:55:00,58.7,54.2,29.92,NNE,21,0.0,5.0,85,0.00,,OVC048,0.00,VWS V14.01,2013-05-08 11:55:00,
2013-05-08 08:00:00,58.9,54.4,29.93,NE,34,0.0,5.0,85,0.00,,OVC048,0.00,VWS V14.01,2013-05-08 12:00:00,
2013-05-08 08:05:00,59.0,54.2,29.93,NNE,16,3.0,5.0,84,0.00,,OVC080,0.00,VWS V14.01,2013-05-08 12:05:00,
2013-05-08 08:10:00,59.3,54.5,29.93,NNE,24,1.0,7.0,84,0.00,,OVC080,0.00,VWS V14.01,2013-05-08 12:10:00,
2013-05-08 08:15:00,59.5,54.7,29.93,NNE,17,0.0,5.0,84,0.00,,OVC080,0.00,VWS V14.01,2013-05-08 12:15:00,
2013-05-08 08:20:00,59.6,54.8,29.93,NNE,24,1.0,5.0,84,0.00,,OVC080,0.00,VWS V14.01,2013-05-08 12:20:00,
2013-05-08 08:25:00,59.9,54.7,29.93,North,0,1.0,5.0,83,0.00,,OVC080,0.00,VWS V14.01,2013-05-08 12:25:00,
2013-05-08 08:30:00,60.1,54.9,29.93,North,359,0.0,6.0,83,0.00,,OVC080,0.00,VWS V14.01,2013-05-08 12:30:00,
2013-05-08 08:35:00,60.2,54.7,29.93,NNE,27,0.0,8.0,82,0.00,,OVC080,0.00,VWS V14.01,2013-05-08 12:35:00,
2013-05-08 08:40:00,60.4,54.9,29.93,NNE,27,0.0,8.0,82,0.00,,OVC080,0.00,VWS V14.01,2013-05-08 12:40:00,
2013-05-08 08:45:00,60.7,55.2,29.93,NNE,27,0.0,6.0,82,0.00,,OVC080,0.00,VWS V14.01,2013-05-08 12:45:00,
2013-05-08 08:50:00,61.0,55.1,29.93,NE,40,0.0,6.0,81,0.00,,OVC080,0.00,VWS V14.01,2013-05-08 12:50:00,
2013-05-08 08:55:00,61.2,55.3,29.93,NNE,20,0.0,5.0,81,0.00,,OVC080,0.00,VWS V14.01,2013-05-08 12:55:00,
2013-05-08 09:00:00,61.0,55.1,29.94,North,6,0.0,5.0,81,0.00,,OVC080,0.00,VWS V14.01,2013-05-08 13:00:00,
2013-05-08 09:06:00,61.0,55.1,29.94,NE,56,2.0,10.0,81,0.00,,OVC090,0.00,VWS V14.01,2013-05-08 13:06:00,
2013-05-08 09:11:00,61.2,55.3,29.94,NNE,30,0.0,7.0,81,0.00,,OVC090,0.00,VWS V14.01,2013-05-08 13:11:00,
2013-05-08 09:15:00,61.8,55.9,29.94,NE,34,0.0,6.0,81,0.00,,OVC090,0.00,VWS V14.01,2013-05-08 13:15:00,
2013-05-08 09:16:00,62.1,55.9,29.94,North,0,3.0,6.0,80,0.00,,OVC090,0.00,VWS V14.01,2013-05-08 13:16:00,
2013-05-08 09:21:00,63.1,55.4,29.94,NNE,21,4.0,6.0,76,0.00,,OVC090,0.00,VWS V14.01,2013-05-08 13:21:00,
2013-05-08 09:26:00,63.7,56.0,29.94,NNE,25,0.0,8.0,76,0.00,,OVC090,0.00,VWS V14.01,2013-05-08 13:26:00,
2013-05-08 09:30:00,64.2,56.1,29.94,North,8,0.0,8.0,75,0.00,,OVC090,0.00,VWS V14.01,2013-05-08 13:30:00,
2013-05-08 09:31:00,64.2,56.1,29.94,ENE,72,1.0,8.0,75,0.00,,OVC090,0.00,VWS V14.01,2013-05-08 13:31:00,
2013-05-08 09:36:00,64.2,56.1,29.94,ENE,58,2.0,8.0,75,0.00,,OVC090,0.00,VWS V14.01,2013-05-08 13:36:00,
2013-05-08 09:41:00,63.9,55.5,29.94,NE,44,2.0,6.0,74,0.00,,OVC090,0.00,VWS V14.01,2013-05-08 13:41:00,
2013-05-08 09:45:00,63.9,55.8,29.94,ENE,59,0.0,6.0,75,0.00,,OVC090,0.00,VWS V14.01,2013-05-08 13:45:00,
2013-05-08 09:46:00,63.9,55.8,29.94,ENE,75,0.0,6.0,75,0.00,,OVC090,0.00,VWS V14.01,2013-05-08 13:46:00,
2013-05-08 09:51:00,63.5,55.1,29.94,ENE,62,0.0,6.0,74,0.00,,OVC090,0.00,VWS V14.01,2013-05-08 13:51:00,
2013-05-08 09:56:00,63.4,55.7,29.94,NE,47,4.0,6.0,76,0.00,,OVC090,0.00,VWS V14.01,2013-05-08 13:56:00,
2013-05-08 10:00:00,63.1,55.1,29.95,North,3,2.0,7.0,75,0.00,,OVC090,0.00,VWS V14.01,2013-05-08 14:00:00,
2013-05-08 10:01:00,63.1,55.4,29.95,ENE,71,2.0,7.0,76,0.00,,OVC090,0.00,VWS V14.01,2013-05-08 14:01:00,
2013-05-08 10:06:00,62.9,55.6,29.95,NE,47,1.0,7.0,77,0.00,,OVC090,0.00,VWS V14.01,2013-05-08 14:06:00,
2013-05-08 10:11:00,62.9,55.6,29.95,NNE,14,5.0,5.0,77,0.00,,OVC090,0.00,VWS V14.01,2013-05-08 14:11:00,
2013-05-08 10:15:00,62.6,54.9,29.96,NE,47,1.0,8.0,76,0.00,,OVC090,0.00,VWS V14.01,2013-05-08 14:15:00,
2013-05-08 10:16:00,62.6,54.9,29.96,ENE,78,8.0,8.0,76,0.00,,CLR,0.00,VWS V14.01,2013-05-08 14:16:00,
2013-05-08 10:21:00,62.7,55.4,29.96,NE,40,3.0,8.0,77,0.00,,CLR,0.00,VWS V14.01,2013-05-08 14:21:00,
2013-05-08 10:26:00,62.9,55.6,29.96,NE,54,0.0,6.0,77,0.00,,CLR,0.00,VWS V14.01,2013-05-08 14:26:00,
2013-05-08 10:30:00,63.1,55.4,29.96,NNE,27,0.0,7.0,76,0.00,,OVC090,0.00,VWS V14.01,2013-05-08 14:30:00,
2013-05-08 10:31:00,63.2,55.5,29.96,NE,38,0.0,7.0,76,0.00,,BKN023,0.00,VWS V14.01,2013-05-08 14:31:00,
2013-05-08 10:36:00,63.4,55.7,29.96,NNE,13,0.0,6.0,76,0.00,,BKN023,0.00,VWS V14.01,2013-05-08 14:36:00,
2013-05-08 10:41:00,63.5,55.4,29.96,NE,49,5.0,6.0,75,0.00,,BKN023,0.00,VWS V14.01,2013-05-08 14:41:00,
2013-05-08 10:45:00,63.9,55.8,29.96,NNE,13,0.0,6.0,75,0.00,,OVC090,0.00,VWS V14.01,2013-05-08 14:45:00,
2013-05-08 10:46:00,63.9,55.8,29.96,NNE,25,0.0,6.0,75,0.00,,BKN023,0.00,VWS V14.01,2013-05-08 14:46:00,
2013-05-08 10:51:00,64.2,55.8,29.96,East,79,4.0,6.0,74,0.00,,BKN023,0.00,VWS V14.01,2013-05-08 14:51:00,
2013-05-08 10:56:00,64.0,55.2,29.96,ENE,59,2.0,6.0,73,0.00,,BKN023,0.00,VWS V14.01,2013-05-08 14:56:00,
2013-05-08 11:00:00,64.0,55.2,29.97,ENE,73,0.0,6.0,73,0.00,,OVC090,0.00,VWS V14.01,2013-05-08 15:00:00,
2013-05-08 11:01:00,64.0,55.2,29.97,East,79,5.0,5.0,73,0.00,,SCT023,0.00,VWS V14.01,2013-05-08 15:01:00,
2013-05-08 11:06:00,64.3,55.5,29.97,NNE,21,0.0,5.0,73,0.00,,SCT023,0.00,VWS V14.01,2013-05-08 15:06:00,
2013-05-08 11:11:00,65.0,56.5,29.97,NNE,25,1.0,4.0,74,0.00,,SCT023,0.00,VWS V14.01,2013-05-08 15:11:00,
2013-05-08 11:15:00,65.5,55.5,29.97,NNE,16,0.0,6.0,70,0.00,,OVC090,0.00,VWS V14.01,2013-05-08 15:15:00,
2013-05-08 11:16:00,65.6,55.6,29.97,NNE,28,5.0,6.0,70,0.00,,SCT023,0.00,VWS V14.01,2013-05-08 15:16:00,
2013-05-08 11:21:00,65.8,56.5,29.97,NE,49,0.0,7.0,72,0.00,,SCT023,0.00,VWS V14.01,2013-05-08 15:21:00,
2013-05-08 11:26:00,66.0,56.3,29.97,NNE,20,4.0,7.0,71,0.00,,SCT023,0.00,VWS V14.01,2013-05-08 15:26:00,
2013-05-08 11:30:00,65.8,55.8,29.97,NE,55,1.0,7.0,70,0.00,,OVC090,0.00,VWS V14.01,2013-05-08 15:30:00,
2013-05-08 11:31:00,66.0,56.3,29.97,NNE,32,0.0,7.0,71,0.00,,SCT023,0.00,VWS V14.01,2013-05-08 15:31:00,
2013-05-08 11:36:00,65.6,55.2,29.97,ENE,59,3.0,7.0,69,0.00,,SCT023,0.00,VWS V14.01,2013-05-08 15:36:00,
2013-05-08 11:41:00,65.2,55.2,29.97,NE,49,0.0,7.0,70,0.00,,SCT023,0.00,VWS V14.01,2013-05-08 15:41:00,
2013-05-08 11:45:00,65.0,55.8,29.97,NNE,27,0.0,7.0,72,0.00,,OVC090,0.00,VWS V14.01,2013-05-08 15:45:00,
2013-05-08 11:46:00,65.0,56.2,29.97,NE,45,0.0,8.0,73,0.00,,BKN025,0.00,VWS V14.01,2013-05-08 15:46:00,
2013-05-08 11:51:00,65.2,56.0,29.97,NE,45,0.0,8.0,72,0.00,,BKN025,0.00,VWS V14.01,2013-05-08 15:51:00,
2013-05-08 11:56:00,65.2,56.0,29.97,ENE,61,3.0,4.0,72,0.00,,BKN025,0.00,VWS V14.01,2013-05-08 15:56:00,
2013-05-08 12:00:00,65.2,55.2,29.97,NE,56,0.0,4.0,70,0.00,,OVC090,0.00,VWS V14.01,2013-05-08 16:00:00,
2013-05-08 12:01:00,65.2,55.2,29.97,NNE,32,0.0,4.0,70,0.00,,BKN025,0.00,VWS V14.01,2013-05-08 16:01:00,
2013-05-08 12:07:00,65.5,55.9,29.97,NNE,25,0.0,3.0,71,0.00,,BKN025,0.00,VWS V14.01,2013-05-08 16:07:00,
2013-05-08 12:12:00,65.5,55.1,29.97,NE,52,0.0,5.0,69,0.00,,BKN025,0.00,VWS V14.01,2013-05-08 16:12:00,
2013-05-08 12:15:00,65.6,56.0,29.97,NE,52,0.0,5.0,71,0.00,,OVC090,0.00,VWS V14.01,2013-05-08 16:15:00,
2013-05-08 12:17:00,65.8,55.4,29.97,NNE,23,0.0,8.0,69,0.00,,BKN025,0.00,VWS V14.01,2013-05-08 16:17:00,
2013-05-08 12:22:00,66.0,56.0,29.97,NNE,21,0.0,8.0,70,0.00,,BKN025,0.00,VWS V14.01,2013-05-08 16:22:00,
2013-05-08 12:27:00,65.6,55.2,29.97,NNE,17,0.0,1.0,69,0.00,,BKN025,0.00,VWS V14.01,2013-05-08 16:27:00,
2013-05-08 12:30:00,65.6,56.0,29.97,NE,42,0.0,1.0,71,0.00,,OVC090,0.00,VWS V14.01,2013-05-08 16:30:00,
2013-05-08 12:32:00,65.5,55.1,29.97,ENE,66,2.0,3.0,69,0.00,,BKN025,0.00,VWS V14.01,2013-05-08 16:32:00,
2013-05-08 12:37:00,65.5,54.3,29.97,NNE,32,2.0,8.0,67,0.00,,BKN025,0.00,VWS V14.01,2013-05-08 16:37:00,
2013-05-08 12:42:00,65.6,54.4,29.97,ENE,59,0.0,8.0,67,0.00,,BKN025,0.00,VWS V14.01,2013-05-08 16:42:00,
2013-05-08 12:45:00,66.0,55.5,29.97,NNE,24,0.0,7.0,69,0.00,,OVC090,0.00,VWS V14.01,2013-05-08 16:45:00,
2013-05-08 12:47:00,66.3,55.4,29.97,NNE,23,0.0,7.0,68,0.00,,SCT027,0.00,VWS V14.01,2013-05-08 16:47:00,
2013-05-08 12:52:00,66.4,54.7,29.97,NE,47,1.0,6.0,66,0.00,,SCT027,0.00,VWS V14.01,2013-05-08 16:52:00,
2013-05-08 12:57:00,66.4,54.3,29.97,ENE,76,0.0,7.0,65,0.00,,SCT027,0.00,VWS V14.01,2013-05-08 16:57:00,
2013-05-08 13:00:00,66.4,55.1,29.97,North,349,0.0,7.0,67,0.00,,OVC090,0.00,VWS V14.01,2013-05-08 17:00:00,
2013-05-08 13:02:00,66.3,53.3,29.97,NE,37,0.0,7.0,63,0.00,,BKN027,0.00,VWS V14.01,2013-05-08 17:02:00,
2013-05-08 13:07:00,66.4,54.3,29.97,NNE,31,0.0,7.0,65,0.00,,BKN027,0.00,VWS V14.01,2013-05-08 17:07:00,
2013-05-08 13:12:00,67.3,54.7,29.97,NNE,31,0.0,6.0,64,0.00,,BKN027,0.00,VWS V14.01,2013-05-08 17:12:00,
2013-05-08 13:15:00,67.6,54.1,29.97,NNE,31,0.0,6.0,62,0.00,,OVC090,0.00,VWS V14.01,2013-05-08 17:15:00,
2013-05-08 13:17:00,67.6,53.2,29.97,NNE,31,0.0,6.0,60,0.00,,SCT027,0.00,VWS V14.01,2013-05-08 17:17:00,
2013-05-08 13:22:00,67.9,53.5,29.97,NNE,27,1.0,3.0,60,0.00,,SCT027,0.00,VWS V14.01,2013-05-08 17:22:00,
2013-05-08 13:27:00,68.3,54.3,29.97,NE,48,0.0,5.0,61,0.00,,SCT027,0.00,VWS V14.01,2013-05-08 17:27:00,
2013-05-08 13:30:00,68.4,53.5,29.96,NNE,31,2.0,5.0,59,0.00,,OVC090,0.00,VWS V14.01,2013-05-08 17:30:00,
2013-05-08 13:32:00,68.6,53.2,29.96,NNE,20,0.0,5.0,58,0.00,,SCT027,0.00,VWS V14.01,2013-05-08 17:32:00,
2013-05-08 13:37:00,69.1,54.7,29.96,North,7,3.0,3.0,60,0.00,,SCT027,0.00,VWS V14.01,2013-05-08 17:37:00,
2013-05-08 13:42:00,69.3,52.5,29.96,ENE,66,0.0,7.0,55,0.00,,SCT027,0.00,VWS V14.01,2013-05-08 17:42:00,
2013-05-08 13:45:00,69.3,53.4,29.96,NE,51,0.0,7.0,57,0.00,,OVC090,0.00,VWS V14.01,2013-05-08 17:45:00,
2013-05-08 13:47:00,69.6,53.7,29.96,NNE,24,3.0,7.0,57,0.00,,SCT027,0.00,VWS V14.01,2013-05-08 17:47:00,
2013-05-08 13:52:00,70.3,54.4,29.96,NNE,27,0.0,6.0,57,0.00,,SCT027,0.00,VWS V14.01,2013-05-08 17:52:00,
2013-05-08 13:58:00,70.4,54.0,29.96,NNE,21,0.0,6.0,56,0.00,,SCT027,0.00,VWS V14.01,2013-05-08 17:58:00,
2013-05-08 14:00:00,70.3,53.4,29.96,ENE,78,0.0,6.0,55,0.00,,OVC090,0.00,VWS V14.01,2013-05-08 18:00:00,
2013-05-08 14:03:00,70.3,55.3,29.96,ENE,62,0.0,6.0,59,0.00,,SCT035,0.00,VWS V14.01,2013-05-08 18:03:00,
2013-05-08 14:08:00,70.4,53.0,29.96,NE,47,0.0,1.0,54,0.00,,SCT035,0.00,VWS V14.01,2013-05-08 18:08:00,
2013-05-08 14:13:00,70.8,53.3,29.96,East,93,0.0,0.0,54,0.00,,SCT035,0.00,VWS V14.01,2013-05-08 18:13:00,
2013-05-08 14:15:00,70.8,53.8,29.95,North,0,0.0,2.0,55,0.00,,OVC090,0.00,VWS V14.01,2013-05-08 18:15:00,
2013-05-08 14:18:00,70.8,52.8,29.95,WNW,298,0.0,5.0,53,0.00,,SCT035,0.00,VWS V14.01,2013-05-08 18:18:00,
2013-05-08 14:23:00,70.9,54.0,29.95,NNW,344,0.0,8.0,55,0.00,,SCT035,0.00,VWS V14.01,2013-05-08 18:23:00,
2013-05-08 14:28:00,71.1,55.1,29.95,North,11,1.0,8.0,57,0.00,,SCT035,0.00,VWS V14.01,2013-05-08 18:28:00,
2013-05-08 14:30:00,71.1,54.1,29.95,North,350,0.0,6.0,55,0.00,,OVC090,0.00,VWS V14.01,2013-05-08 18:30:00,
2013-05-08 14:33:00,71.3,54.8,29.95,NE,41,5.0,7.0,56,0.00,,SCT035,0.00,VWS V14.01,2013-05-08 18:33:00,
2013-05-08 14:38:00,71.8,54.8,29.95,NNE,32,0.0,7.0,55,0.00,,SCT035,0.00,VWS V14.01,2013-05-08 18:38:00,
2013-05-08 14:43:00,72.0,55.5,29.95,NE,37,0.0,7.0,56,0.00,,SCT035,0.00,VWS V14.01,2013-05-08 18:43:00,
2013-05-08 14:45:00,72.1,56.5,29.94,NE,40,0.0,7.0,58,0.00,,OVC090,0.00,VWS V14.01,2013-05-08 18:45:00,
2013-05-08 14:48:00,72.1,54.0,29.94,NNE,31,0.0,6.0,53,0.00,,SCT035,0.00,VWS V14.01,2013-05-08 18:48:00,
2013-05-08 14:53:00,72.5,55.4,29.94,NNE,31,0.0,1.0,55,0.00,,SCT035,0.00,VWS V14.01,2013-05-08 18:53:00,
2013-05-08 14:58:00,73.0,54.9,29.94,North,354,0.0,7.0,53,0.00,,SCT035,0.00,VWS V14.01,2013-05-08 18:58:00,
2013-05-08 15:00:00,73.2,54.5,29.94,NNW,346,0.0,7.0,52,0.00,,OVC090,0.00,VWS V14.01,2013-05-08 19:00:00,
2013-05-08 15:03:00,73.0,53.3,29.94,NNW,328,0.0,7.0,50,0.00,,FEW041,0.00,VWS V14.01,2013-05-08 19:03:00,
2013-05-08 15:08:00,72.8,54.7,29.94,NNW,340,0.0,7.0,53,0.00,,FEW041,0.00,VWS V14.01,2013-05-08 19:08:00,
2013-05-08 15:13:00,73.3,55.2,29.94,NNW,328,0.0,5.0,53,0.00,,FEW041,0.00,VWS V14.01,2013-05-08 19:13:00,
2013-05-08 15:15:00,73.5,55.3,29.94,NNW,340,5.0,6.0,53,0.00,,OVC090,0.00,VWS V14.01,2013-05-08 19:15:00,
2013-05-08 15:18:00,73.5,54.3,29.94,North,4,0.0,6.0,51,0.00,,FEW041,0.00,VWS V14.01,2013-05-08 19:18:00,
2013-05-08 15:23:00,73.0,53.8,29.94,NNW,344,0.0,4.0,51,0.00,,FEW041,0.00,VWS V14.01,2013-05-08 19:23:00,
2013-05-08 15:28:00,73.2,52.4,29.94,NNW,330,0.0,6.0,48,0.00,,FEW041,0.00,VWS V14.01,2013-05-08 19:28:00,
2013-05-08 15:30:00,73.2,53.5,29.93,NNW,330,0.0,6.0,50,0.00,,OVC090,0.00,VWS V14.01,2013-05-08 19:30:00,
2013-05-08 15:33:00,73.2,54.5,29.93,ENE,71,0.0,2.0,52,0.00,,FEW041,0.00,VWS V14.01,2013-05-08 19:33:00,
2013-05-08 15:38:00,73.2,52.9,29.93,NNE,20,0.0,2.0,49,0.00,,FEW041,0.00,VWS V14.01,2013-05-08 19:38:00,
2013-05-08 15:43:00,73.2,52.4,29.93,NNE,20,0.0,2.0,48,0.00,,FEW041,0.00,VWS V14.01,2013-05-08 19:43:00,
2013-05-08 15:45:00,73.2,53.5,29.93,NNE,20,0.0,2.0,50,0.00,,OVC090,0.00,VWS V14.01,2013-05-08 19:45:00,
2013-05-08 15:48:00,73.3,55.7,29.93,NNE,20,0.0,0.0,54,0.00,,FEW041,0.00,VWS V14.01,2013-05-08 19:48:00,
2013-05-08 15:53:00,74.0,55.8,29.93,NNE,20,0.0,0.0,53,0.00,,FEW041,0.00,VWS V14.01,2013-05-08 19:53:00,
2013-05-08 15:59:00,74.6,55.8,29.93,NE,51,0.0,1.0,52,0.00,,FEW041,0.00,VWS V14.01,2013-05-08 19:59:00,
2013-05-08 16:00:00,74.6,55.3,29.92,NNE,27,0.0,1.0,51,0.00,,OVC090,0.00,VWS V14.01,2013-05-08 20:00:00,
2013-05-08 16:04:00,74.6,53.1,29.92,NNE,27,0.0,1.0,47,0.00,,FEW047,0.00,VWS V14.01,2013-05-08 20:04:00,
2013-05-08 16:09:00,74.4,54.6,29.92,NNE,27,0.0,0.0,50,0.00,,FEW047,0.00,VWS V14.01,2013-05-08 20:09:00,
2013-05-08 16:14:00,74.6,55.8,29.92,WNW,284,0.0,1.0,52,0.00,,FEW047,0.00,VWS V14.01,2013-05-08 20:14:00,
2013-05-08 16:15:00,74.7,55.4,29.92,NNW,340,2.0,2.0,51,0.00,,OVC090,0.00,VWS V14.01,2013-05-08 20:15:00,
2013-05-08 16:19:00,75.1,54.1,29.92,NNE,24,0.0,4.0,48,0.00,,FEW047,0.00,VWS V14.01,2013-05-08 20:19:00,
2013-05-08 16:24:00,75.3,53.7,29.92,NNE,27,0.0,4.0,47,0.00,,FEW047,0.00,VWS V14.01,2013-05-08 20:24:00,
2013-05-08 16:29:00,75.4,53.8,29.92,North,10,0.0,3.0,47,0.00,,FEW047,0.00,VWS V14.01,2013-05-08 20:29:00,
2013-05-08 16:30:00,75.4,54.9,29.92,NNE,28,0.0,3.0,49,0.00,,OVC090,0.00,VWS V14.01,2013-05-08 20:30:00,
2013-05-08 16:34:00,75.6,52.2,29.92,NNE,28,0.0,0.0,44,0.00,,FEW047,0.00,VWS V14.01,2013-05-08 20:34:00,
2013-05-08 16:39:00,75.3,53.1,29.92,NNE,30,0.0,1.0,46,0.00,,FEW047,0.00,VWS V14.01,2013-05-08 20:39:00,
2013-05-08 16:44:00,75.1,53.5,29.92,NNE,30,0.0,1.0,47,0.00,,FEW047,0.00,VWS V14.01,2013-05-08 20:44:00,
2013-05-08 16:45:00,75.1,54.1,29.92,NNE,30,0.0,1.0,48,0.00,,OVC090,0.00,VWS V14.01,2013-05-08 20:45:00,
2013-05-08 16:49:00,75.3,53.7,29.92,West,261,0.0,3.0,47,0.00,,FEW047,0.00,VWS V14.01,2013-05-08 20:49:00,
2013-05-08 16:54:00,75.1,52.9,29.92,SW,227,0.0,3.0,46,0.00,,FEW047,0.00,VWS V14.01,2013-05-08 20:54:00,
2013-05-08 16:59:00,74.4,52.3,29.92,North,353,2.0,8.0,46,0.00,,FEW047,0.00,VWS V14.01,2013-05-08 20:59:00,
2013-05-08 17:00:00,74.4,52.3,29.92,NW,320,0.0,8.0,46,0.00,,OVC090,0.00,VWS V14.01,2013-05-08 21:00:00,
2013-05-08 17:04:00,74.2,52.1,29.92,NNW,330,1.0,8.0,46,0.00,,SCT055,0.00,VWS V14.01,2013-05-08 21:04:00,
2013-05-08 17:09:00,74.4,54.0,29.92,NW,319,0.0,8.0,49,0.00,,SCT055,0.00,VWS V14.01,2013-05-08 21:09:00,
2013-05-08 17:14:00,74.7,53.7,29.92,NW,315,0.0,6.0,48,0.00,,SCT055,0.00,VWS V14.01,2013-05-08 21:14:00,
2013-05-08 17:15:00,74.7,53.7,29.92,North,356,0.0,6.0,48,0.00,,OVC090,0.00,VWS V14.01,2013-05-08 21:15:00,
2013-05-08 17:19:00,74.7,53.2,29.92,WSW,247,1.0,6.0,47,0.00,,SCT055,0.00,VWS V14.01,2013-05-08 21:19:00,
2013-05-08 17:24:00,74.6,51.9,29.92,WSW,253,0.0,5.0,45,0.00,,SCT055,0.00,VWS V14.01,2013-05-08 21:24:00,
2013-05-08 17:29:00,74.2,52.7,29.92,WSW,251,0.0,4.0,47,0.00,,SCT055,0.00,VWS V14.01,2013-05-08 21:29:00,
2013-05-08 17:30:00,74.2,52.7,29.92,WSW,251,0.0,4.0,47,0.00,,OVC090,0.00,VWS V14.01,2013-05-08 21:30:00,
2013-05-08 17:34:00,74.0,53.7,29.92,NW,305,0.0,3.0,49,0.00,,SCT055,0.00,VWS V14.01,2013-05-08 21:34:00,
2013-05-08 17:39:00,73.9,54.1,29.92,WNW,285,0.0,2.0,50,0.00,,SCT055,0.00,VWS V14.01,2013-05-08 21:39:00,
2013-05-08 17:44:00,73.9,53.0,29.92,WNW,298,0.0,1.0,48,0.00,,SCT055,0.00,VWS V14.01,2013-05-08 21:44:00,
2013-05-08 17:45:00,73.9,53.0,29.92,WNW,298,0.0,1.0,48,0.00,,OVC090,0.00,VWS V14.01,2013-05-08 21:45:00,
2013-05-08 17:49:00,74.4,54.0,29.92,WNW,299,0.0,0.0,49,0.00,,SCT055,0.00,VWS V14.01,2013-05-08 21:49:00,
2013-05-08 17:54:00,74.9,52.8,29.92,NNW,333,0.0,3.0,46,0.00,,SCT055,0.00,VWS V14.01,2013-05-08 21:54:00,
2013-05-08 17:59:00,75.1,52.9,29.91,NNW,330,0.0,3.0,46,0.00,,SCT055,0.00,VWS V14.01,2013-05-08 21:59:00,
2013-05-08 18:00:00,75.1,52.9,29.91,NNW,330,0.0,3.0,46,0.00,,OVC090,0.00,VWS V14.01,2013-05-08 22:00:00,
2013-05-08 18:04:00,74.9,52.8,29.91,NNW,332,0.0,3.0,46,0.00,,FEW048,0.00,VWS V14.01,2013-05-08 22:04:00,
2013-05-08 18:09:00,74.6,52.5,29.91,West,274,2.0,6.0,46,0.00,,FEW048,0.00,VWS V14.01,2013-05-08 22:09:00,
2013-05-08 18:14:00,74.0,53.1,29.92,WSW,257,0.0,5.0,48,0.00,,FEW048,0.00,VWS V14.01,2013-05-08 22:14:00,
2013-05-08 18:15:00,73.9,53.0,29.92,WSW,257,0.0,5.0,48,0.00,,OVC090,0.00,VWS V14.01,2013-05-08 22:15:00,
2013-05-08 18:19:00,73.7,53.4,29.92,WSW,257,0.0,5.0,49,0.00,,FEW048,0.00,VWS V14.01,2013-05-08 22:19:00,
2013-05-08 18:24:00,73.5,54.3,29.92,West,264,0.0,5.0,51,0.00,,FEW048,0.00,VWS V14.01,2013-05-08 22:24:00,
2013-05-08 18:29:00,73.5,53.7,29.91,West,260,0.0,1.0,50,0.00,,FEW048,0.00,VWS V14.01,2013-05-08 22:29:00,
2013-05-08 18:30:00,73.5,53.7,29.91,West,260,0.0,1.0,50,0.00,,OVC090,0.00,VWS V14.01,2013-05-08 22:30:00,
2013-05-08 18:34:00,73.5,53.7,29.91,West,260,0.0,0.0,50,0.00,,FEW048,0.00,VWS V14.01,2013-05-08 22:34:00,
2013-05-08 18:39:00,73.3,53.6,29.91,SW,227,0.0,5.0,50,0.00,,FEW048,0.00,VWS V14.01,2013-05-08 22:39:00,
2013-05-08 18:44:00,73.0,54.4,29.91,NW,312,0.0,5.0,52,0.00,,FEW048,0.00,VWS V14.01,2013-05-08 22:44:00,
2013-05-08 18:45:00,73.0,54.4,29.91,WSW,257,0.0,5.0,52,0.00,,OVC034,0.00,VWS V14.01,2013-05-08 22:45:00,
2013-05-08 18:50:00,72.5,53.9,29.91,West,280,0.0,5.0,52,0.00,,FEW048,0.00,VWS V14.01,2013-05-08 22:50:00,
2013-05-08 18:55:00,72.1,54.6,29.91,West,263,5.0,6.0,54,0.00,,FEW048,0.00,VWS V14.01,2013-05-08 22:55:00,
2013-05-08 19:00:00,71.6,54.6,29.91,SW,227,0.0,7.0,55,0.00,,FEW048,0.00,VWS V14.01,2013-05-08 23:00:00,
2013-05-08 19:05:00,71.3,53.3,29.91,SW,222,3.0,6.0,53,0.00,,BKN055,0.00,VWS V14.01,2013-05-08 23:05:00,
2013-05-08 19:10:00,71.1,53.6,29.91,WSW,241,0.0,6.0,54,0.00,,BKN055,0.00,VWS V14.01,2013-05-08 23:10:00,
2013-05-08 19:15:00,70.8,53.3,29.92,SW,234,3.0,13.0,54,0.00,,BKN055,0.00,VWS V14.01,2013-05-08 23:15:00,
2013-05-08 19:20:00,70.4,53.0,29.92,WSW,254,0.0,8.0,54,0.00,,BKN055,0.00,VWS V14.01,2013-05-08 23:20:00,
2013-05-08 19:25:00,70.3,53.9,29.92,WSW,244,0.0,6.0,56,0.00,,BKN055,0.00,VWS V14.01,2013-05-08 23:25:00,
2013-05-08 19:30:00,70.1,53.7,29.92,West,272,0.0,3.0,56,0.00,,BKN055,0.00,VWS V14.01,2013-05-08 23:30:00,
2013-05-08 19:35:00,70.1,54.2,29.92,West,272,0.0,0.0,57,0.00,,BKN055,0.00,VWS V14.01,2013-05-08 23:35:00,
2013-05-08 19:40:00,70.1,54.2,29.92,West,272,0.0,0.0,57,0.00,,BKN055,0.00,VWS V14.01,2013-05-08 23:40:00,
2013-05-08 19:45:00,70.1,54.2,29.92,West,270,0.0,0.0,57,0.00,,BKN055,0.00,VWS V14.01,2013-05-08 23:45:00,
2013-05-08 19:50:00,69.9,54.5,29.92,West,270,0.0,0.0,58,0.00,,BKN055,0.00,VWS V14.01,2013-05-08 23:50:00,
2013-05-08 19:55:00,69.6,53.7,29.92,West,270,0.0,0.0,57,0.00,,BKN055,0.00,VWS V14.01,2013-05-08 23:55:00,
2013-05-08 20:00:00,69.4,54.0,29.93,West,270,0.0,0.0,58,0.00,,BKN055,0.00,VWS V14.01,2013-05-09 00:00:00,
2013-05-08 20:05:00,69.3,54.4,29.93,West,270,0.0,0.0,59,0.00,,CLR,0.00,VWS V14.01,2013-05-09 00:05:00,
2013-05-08 20:10:00,68.9,54.9,29.93,West,270,0.0,0.0,61,0.00,,CLR,0.00,VWS V14.01,2013-05-09 00:10:00,
2013-05-08 20:15:00,68.8,54.8,29.93,West,270,0.0,0.0,61,0.00,,CLR,0.00,VWS V14.01,2013-05-09 00:15:00,
2013-05-08 20:20:00,68.4,54.4,29.93,West,270,0.0,0.0,61,0.00,,CLR,0.00,VWS V14.01,2013-05-09 00:20:00,
2013-05-08 20:25:00,68.1,54.6,29.93,West,270,0.0,0.0,62,0.00,,CLR,0.00,VWS V14.01,2013-05-09 00:25:00,
2013-05-08 20:30:00,67.6,54.6,29.94,West,270,0.0,0.0,63,0.00,,CLR,0.00,VWS V14.01,2013-05-09 00:30:00,
2013-05-08 20:35:00,67.3,54.7,29.94,West,270,0.0,0.0,64,0.00,,CLR,0.00,VWS V14.01,2013-05-09 00:35:00,
2013-05-08 20:40:00,66.9,54.8,29.94,West,270,0.0,0.0,65,0.00,,CLR,0.00,VWS V14.01,2013-05-09 00:40:00,
2013-05-08 20:45:00,66.4,54.7,29.94,West,270,0.0,0.0,66,0.00,,CLR,0.00,VWS V14.01,2013-05-09 00:45:00,
2013-05-08 20:51:00,66.1,54.8,29.94,West,270,0.0,0.0,67,0.00,,CLR,0.00,VWS V14.01,2013-05-09 00:51:00,
2013-05-08 20:56:00,65.8,54.5,29.94,West,270,0.0,0.0,67,0.00,,CLR,0.00,VWS V14.01,2013-05-09 00:56:00,
2013-05-08 21:00:00,65.5,54.7,29.95,West,270,0.0,0.0,68,0.00,,OVC034,0.00,VWS V14.01,2013-05-09 01:00:00,
2013-05-08 21:01:00,65.5,54.7,29.95,West,270,0.0,0.0,68,0.00,,CLR,0.00,VWS V14.01,2013-05-09 01:01:00,
2013-05-08 21:06:00,65.2,54.8,29.95,West,270,0.0,0.0,69,0.00,,FEW120,0.00,VWS V14.01,2013-05-09 01:06:00,
2013-05-08 21:11:00,64.7,55.1,29.95,West,270,0.0,0.0,71,0.00,,FEW120,0.00,VWS V14.01,2013-05-09 01:11:00,
2013-05-08 21:15:00,64.3,55.1,29.95,West,270,0.0,0.0,72,0.00,,OVC034,0.00,VWS V14.01,2013-05-09 01:15:00,
2013-05-08 21:16:00,64.2,55.0,29.95,West,270,0.0,0.0,72,0.00,,FEW120,0.00,VWS V14.01,2013-05-09 01:16:00,
2013-05-08 21:21:00,63.7,54.9,29.95,West,270,0.0,0.0,73,0.00,,FEW120,0.00,VWS V14.01,2013-05-09 01:21:00,
2013-05-08 21:26:00,63.2,54.8,29.95,West,270,0.0,0.0,74,0.00,,FEW120,0.00,VWS V14.01,2013-05-09 01:26:00,
2013-05-08 21:30:00,62.9,54.9,29.95,West,270,0.0,0.0,75,0.00,,OVC034,0.00,VWS V14.01,2013-05-09 01:30:00,
2013-05-08 21:31:00,62.7,54.7,29.95,West,270,0.0,0.0,75,0.00,,FEW120,0.00,VWS V14.01,2013-05-09 01:31:00,
2013-05-08 21:36:00,62.3,54.7,29.95,West,270,0.0,0.0,76,0.00,,FEW120,0.00,VWS V14.01,2013-05-09 01:36:00,
2013-05-08 21:41:00,62.0,54.7,29.95,West,270,0.0,0.0,77,0.00,,FEW120,0.00,VWS V14.01,2013-05-09 01:41:00,
2013-05-08 21:45:00,61.6,54.3,29.95,West,270,0.0,0.0,77,0.00,,OVC034,0.00,VWS V14.01,2013-05-09 01:45:00,
2013-05-08 21:46:00,61.5,54.6,29.95,West,270,0.0,0.0,78,0.00,,FEW120,0.00,VWS V14.01,2013-05-09 01:46:00,
2013-05-08 21:51:00,61.3,54.4,29.95,West,270,0.0,0.0,78,0.00,,FEW120,0.00,VWS V14.01,2013-05-09 01:51:00,
2013-05-08 21:56:00,61.0,54.1,29.95,West,270,0.0,0.0,78,0.00,,FEW120,0.00,VWS V14.01,2013-05-09 01:56:00,
2013-05-08 22:00:00,60.9,54.3,29.96,West,270,0.0,0.0,79,0.00,,OVC034,0.00,VWS V14.01,2013-05-09 02:00:00,
2013-05-08 22:01:00,60.7,54.2,29.96,West,270,0.0,0.0,79,0.00,,FEW120,0.00,VWS V14.01,2013-05-09 02:01:00,
2013-05-08 22:06:00,60.5,54.0,29.96,West,270,0.0,0.0,79,0.00,,SCT065,0.00,VWS V14.01,2013-05-09 02:06:00,
2013-05-08 22:11:00,60.2,54.0,29.96,West,270,0.0,0.0,80,0.00,,SCT065,0.00,VWS V14.01,2013-05-09 02:11:00,
2013-05-08 22:15:00,60.1,53.9,29.97,West,270,0.0,0.0,80,0.00,,OVC034,0.00,VWS V14.01,2013-05-09 02:15:00,
2013-05-08 22:16:00,59.9,54.1,29.97,West,270,0.0,0.0,81,0.00,,SCT065,0.00,VWS V14.01,2013-05-09 02:16:00,
2013-05-08 22:21:00,59.8,54.0,29.97,West,270,0.0,0.0,81,0.00,,SCT065,0.00,VWS V14.01,2013-05-09 02:21:00,
2013-05-08 22:26:00,59.5,54.0,29.97,West,270,0.0,0.0,82,0.00,,SCT065,0.00,VWS V14.01,2013-05-09 02:26:00,
2013-05-08 22:30:00,59.5,54.0,29.97,West,270,0.0,0.0,82,0.00,,OVC034,0.00,VWS V14.01,2013-05-09 02:30:00,
2013-05-08 22:31:00,59.3,53.8,29.97,West,270,0.0,0.0,82,0.00,,SCT065,0.00,VWS V14.01,2013-05-09 02:31:00,
2013-05-08 22:36:00,59.2,53.7,29.97,West,270,0.0,0.0,82,0.00,,SCT065,0.00,VWS V14.01,2013-05-09 02:36:00,
2013-05-08 22:41:00,59.0,53.8,29.97,West,270,0.0,0.0,83,0.00,,SCT065,0.00,VWS V14.01,2013-05-09 02:41:00,
2013-05-08 22:45:00,58.9,53.8,29.97,West,270,0.0,0.0,83,0.00,,OVC034,0.00,VWS V14.01,2013-05-09 02:45:00,
2013-05-08 22:46:00,58.9,54.0,29.97,West,270,0.0,-999.0,83,-99.99,,,0.00,weatherlink.com 1.10,2013-05-09 02:46:00,
2013-05-08 22:51:00,58.7,53.9,29.97,West,268,0.0,2.0,84,0.00,,SCT065,0.00,VWS V14.01,2013-05-09 02:51:00,
2013-05-08 22:56:00,58.7,53.9,29.97,West,268,0.0,0.0,84,0.00,,SCT065,0.00,VWS V14.01,2013-05-09 02:56:00,
2013-05-08 23:00:00,58.7,53.6,29.97,West,268,0.0,0.0,83,0.00,,OVC034,0.00,VWS V14.01,2013-05-09 03:00:00,
2013-05-08 23:01:00,58.7,53.6,29.97,West,268,0.0,0.0,83,0.00,,FEW060,0.00,VWS V14.01,2013-05-09 03:01:00,
2013-05-08 23:06:00,58.7,53.6,29.97,West,268,0.0,0.0,83,0.00,,FEW060,0.00,VWS V14.01,2013-05-09 03:06:00,
2013-05-08 23:11:00,58.6,53.5,29.97,West,268,0.0,0.0,83,0.00,,FEW060,0.00,VWS V14.01,2013-05-09 03:11:00,
2013-05-08 23:15:00,58.4,53.3,29.97,West,268,0.0,0.0,83,0.00,,OVC034,0.00,VWS V14.01,2013-05-09 03:15:00,
2013-05-08 23:16:00,58.4,53.3,29.97,West,268,0.0,0.0,83,0.00,,FEW060,0.00,VWS V14.01,2013-05-09 03:16:00,
2013-05-08 23:22:00,58.4,53.3,29.97,West,272,0.0,0.0,83,0.00,,FEW060,0.00,VWS V14.01,2013-05-09 03:22:00,
2013-05-08 23:27:00,58.4,53.3,29.97,West,272,0.0,0.0,83,0.00,,FEW060,0.00,VWS V14.01,2013-05-09 03:27:00,
2013-05-08 23:30:00,58.3,53.2,29.97,West,272,0.0,0.0,83,0.00,,OVC034,0.00,VWS V14.01,2013-05-09 03:30:00,
2013-05-08 23:32:00,58.3,53.2,29.97,West,272,0.0,0.0,83,0.00,,FEW060,0.00,VWS V14.01,2013-05-09 03:32:00,
2013-05-08 23:37:00,58.1,53.0,29.97,West,272,0.0,0.0,83,0.00,,FEW060,0.00,VWS V14.01,2013-05-09 03:37:00,
2013-05-08 23:42:00,58.1,53.3,29.97,West,272,0.0,0.0,84,0.00,,FEW060,0.00,VWS V14.01,2013-05-09 03:42:00,
2013-05-08 23:45:00,58.1,53.3,29.97,West,272,0.0,0.0,84,0.00,,OVC034,0.00,VWS V14.01,2013-05-09 03:45:00,
2013-05-08 23:47:00,58.1,53.3,29.97,West,272,0.0,0.0,84,0.00,,FEW060,0.00,VWS V14.01,2013-05-09 03:47:00,
2013-05-08 23:52:00,58.0,53.2,29.97,West,272,0.0,0.0,84,0.00,,FEW060,0.00,VWS V14.01,2013-05-09 03:52:00,
2013-05-08 23:57:00,57.6,52.8,29.97,West,272,0.0,0.0,84,0.00,,FEW060,0.00,VWS V14.01,2013-05-09 03:57:00,